createdAt,value
2018-05-29T00:00:55.243Z,23.06
2018-05-29T00:01:56.118Z,23.03
2018-05-29T00:02:56.202Z,22.99
2018-05-29T00:03:56.229Z,23.06
2018-05-29T00:04:56.545Z,23.04
2018-05-29T00:05:56.616Z,22.96
2018-05-29T00:06:56.938Z,22.94
2018-05-29T00:07:57.039Z,22.91
2018-05-29T00:08:57.000Z,22.99
2018-05-29T00:09:57.169Z,22.91
2018-05-29T00:10:57.320Z,22.99
2018-05-29T00:11:57.523Z,22.92
2018-05-29T00:12:57.774Z,22.91
2018-05-29T00:13:57.395Z,22.96
2018-05-29T00:14:57.363Z,22.82
2018-05-29T00:15:57.860Z,22.81
2018-05-29T00:16:57.964Z,22.92
2018-05-29T00:17:57.943Z,22.85
2018-05-29T00:18:57.972Z,22.81
2018-05-29T00:19:57.472Z,22.76
2018-05-29T00:20:58.042Z,22.75
2018-05-29T00:21:58.198Z,22.78
2018-05-29T00:22:58.349Z,22.73
2018-05-29T00:23:58.299Z,22.73
2018-05-29T00:24:58.471Z,22.61
2018-05-29T00:25:58.922Z,22.69
2018-05-29T00:26:58.788Z,22.69
2018-05-29T00:27:58.962Z,22.69
2018-05-29T00:28:59.425Z,22.59
2018-05-29T00:29:59.470Z,22.61
2018-05-29T00:30:59.482Z,22.63
2018-05-29T00:32:00.445Z,22.63
2018-05-29T00:33:00.031Z,22.54
2018-05-29T00:34:00.387Z,22.61
2018-05-29T00:35:00.168Z,22.55
2018-05-29T00:36:01.072Z,22.6
2018-05-29T00:37:00.993Z,22.7
2018-05-29T00:38:01.476Z,22.57
2018-05-29T00:39:01.008Z,22.63
2018-05-29T00:40:01.280Z,22.63
2018-05-29T00:41:01.610Z,22.59
2018-05-29T00:42:00.217Z,22.64
2018-05-29T00:43:00.765Z,22.49
2018-05-29T00:44:01.305Z,22.54
2018-05-29T00:45:01.925Z,22.51
2018-05-29T00:46:02.143Z,22.44
2018-05-29T00:47:01.947Z,22.49
2018-05-29T00:48:02.302Z,22.42
2018-05-29T00:49:01.543Z,22.48
2018-05-29T00:50:02.267Z,22.48
2018-05-29T00:51:02.272Z,22.44
2018-05-29T00:52:02.251Z,22.44
2018-05-29T00:53:01.301Z,22.55
2018-05-29T00:54:01.150Z,22.51
2018-05-29T00:55:02.486Z,22.49
2018-05-29T00:56:02.278Z,22.44
2018-05-29T00:57:02.463Z,22.44
2018-05-29T00:58:02.394Z,22.38
2018-05-29T00:59:02.363Z,22.54
2018-05-29T01:00:14.742Z,22.38
2018-05-29T01:01:02.565Z,22.39
2018-05-29T01:02:02.556Z,22.39
2018-05-29T01:03:02.191Z,22.36
2018-05-29T01:04:01.871Z,22.34
2018-05-29T01:05:02.886Z,22.39
2018-05-29T01:06:02.129Z,22.34
2018-05-29T01:07:01.613Z,22.26
2018-05-29T01:08:02.770Z,22.29
2018-05-29T01:09:02.498Z,22.3
2018-05-29T01:10:03.362Z,22.26
2018-05-29T01:11:01.877Z,22.3
2018-05-29T01:12:02.757Z,22.3
2018-05-29T01:13:02.806Z,22.31
2018-05-29T01:14:02.624Z,22.3
2018-05-29T01:15:02.918Z,22.29
2018-05-29T01:16:03.913Z,22.34
2018-05-29T01:17:02.462Z,22.33
2018-05-29T01:18:03.600Z,22.33
2018-05-29T01:19:03.630Z,22.24
2018-05-29T01:20:03.661Z,22.24
2018-05-29T01:21:03.617Z,22.2
2018-05-29T01:22:04.370Z,22.15
2018-05-29T01:23:04.263Z,22.15
2018-05-29T01:24:03.680Z,22.04
2018-05-29T01:25:04.115Z,22.05
2018-05-29T01:26:04.180Z,22.08
2018-05-29T01:27:05.136Z,22
2018-05-29T01:28:03.908Z,22.04
2018-05-29T01:29:03.610Z,21.93
2018-05-29T01:30:03.937Z,21.94
2018-05-29T01:31:03.361Z,21.85
2018-05-29T01:32:03.935Z,21.9
2018-05-29T01:33:03.988Z,21.92
2018-05-29T01:34:03.907Z,21.94
2018-05-29T01:35:04.418Z,21.93
2018-05-29T01:36:04.117Z,21.83
2018-05-29T01:37:04.288Z,21.89
2018-05-29T01:38:04.960Z,21.74
2018-05-29T01:39:04.905Z,21.8
2018-05-29T01:40:05.130Z,21.82
2018-05-29T01:41:05.169Z,21.8
2018-05-29T01:42:05.228Z,21.76
2018-05-29T01:43:05.258Z,21.74
2018-05-29T01:44:05.068Z,21.71
2018-05-29T01:45:05.654Z,21.61
2018-05-29T01:46:05.628Z,21.74
2018-05-29T01:47:05.385Z,21.66
2018-05-29T01:48:05.880Z,21.68
2018-05-29T01:49:06.628Z,21.67
2018-05-29T01:50:06.866Z,21.61
2018-05-29T01:51:06.856Z,21.73
2018-05-29T01:52:06.321Z,21.76
2018-05-29T01:53:06.893Z,21.61
2018-05-29T01:54:06.437Z,21.64
2018-05-29T01:55:06.983Z,21.52
2018-05-29T01:56:07.165Z,21.61
2018-05-29T01:57:06.813Z,21.49
2018-05-29T01:58:07.394Z,21.55
2018-05-29T01:59:07.996Z,21.55
2018-05-29T02:00:14.189Z,21.55
2018-05-29T02:01:07.974Z,21.55
2018-05-29T02:02:07.993Z,21.52
2018-05-29T02:03:07.770Z,21.43
2018-05-29T02:04:07.960Z,21.38
2018-05-29T02:05:07.945Z,21.43
2018-05-29T02:06:08.049Z,21.27
2018-05-29T02:07:08.078Z,21.36
2018-05-29T02:08:08.070Z,21.33
2018-05-29T02:09:08.467Z,21.34
2018-05-29T02:10:08.566Z,21.3
2018-05-29T02:11:08.693Z,21.25
2018-05-29T02:12:08.618Z,21.25
2018-05-29T02:13:08.937Z,21.28
2018-05-29T02:14:08.681Z,21.25
2018-05-29T02:15:09.468Z,21.25
2018-05-29T02:16:08.948Z,21.18
2018-05-29T02:17:09.499Z,21.18
2018-05-29T02:18:09.627Z,21.09
2018-05-29T02:19:09.765Z,21
2018-05-29T02:20:10.139Z,21.01
2018-05-29T02:21:10.022Z,20.97
2018-05-29T02:22:10.055Z,20.93
2018-05-29T02:23:10.193Z,20.88
2018-05-29T02:24:10.583Z,20.94
2018-05-29T02:25:10.932Z,20.91
2018-05-29T02:26:11.057Z,20.93
2018-05-29T02:27:11.177Z,20.91
2018-05-29T02:28:11.985Z,20.96
2018-05-29T02:29:11.622Z,20.96
2018-05-29T02:30:11.576Z,20.97
2018-05-29T02:31:11.231Z,21.01
2018-05-29T02:32:11.558Z,20.9
2018-05-29T02:33:11.420Z,20.93
2018-05-29T02:34:11.460Z,20.91
2018-05-29T02:35:11.675Z,20.93
2018-05-29T02:36:11.827Z,20.86
2018-05-29T02:37:11.610Z,20.9
2018-05-29T02:38:11.778Z,20.91
2018-05-29T02:39:12.307Z,20.98
2018-05-29T02:40:12.392Z,20.96
2018-05-29T02:41:12.208Z,20.93
2018-05-29T02:42:11.918Z,20.82
2018-05-29T02:43:12.384Z,20.76
2018-05-29T02:44:12.598Z,20.68
2018-05-29T02:45:13.264Z,20.68
2018-05-29T02:46:12.754Z,20.68
2018-05-29T02:47:13.304Z,20.6
2018-05-29T02:48:13.324Z,20.56
2018-05-29T02:49:13.395Z,20.58
2018-05-29T02:50:13.856Z,20.63
2018-05-29T02:51:13.979Z,20.53
2018-05-29T02:52:14.283Z,20.57
2018-05-29T02:53:13.862Z,20.56
2018-05-29T02:54:14.350Z,20.53
2018-05-29T02:55:14.479Z,20.58
2018-05-29T02:56:14.417Z,20.51
2018-05-29T02:57:14.154Z,20.54
2018-05-29T02:58:14.479Z,20.54
2018-05-29T02:59:14.532Z,20.51
2018-05-29T03:00:27.752Z,20.53
2018-05-29T03:01:28.302Z,20.51
2018-05-29T03:02:28.241Z,20.4
2018-05-29T03:03:27.735Z,20.42
2018-05-29T03:04:28.687Z,20.56
2018-05-29T03:05:28.470Z,20.57
2018-05-29T03:06:28.507Z,20.53
2018-05-29T03:07:28.533Z,20.49
2018-05-29T03:08:28.392Z,20.42
2018-05-29T03:09:29.042Z,20.41
2018-05-29T03:10:29.114Z,20.32
2018-05-29T03:11:28.787Z,20.38
2018-05-29T03:12:28.551Z,20.4
2018-05-29T03:13:28.952Z,20.42
2018-05-29T03:14:28.995Z,20.37
2018-05-29T03:15:29.559Z,20.35
2018-05-29T03:16:29.236Z,20.38
2018-05-29T03:17:29.659Z,20.42
2018-05-29T03:18:29.693Z,20.53
2018-05-29T03:19:30.972Z,20.57
2018-05-29T03:20:29.840Z,20.57
2018-05-29T03:21:29.841Z,20.42
2018-05-29T03:22:29.665Z,20.44
2018-05-29T03:23:29.656Z,20.38
2018-05-29T03:24:29.913Z,20.41
2018-05-29T03:25:29.634Z,20.35
2018-05-29T03:26:29.763Z,20.37
2018-05-29T03:27:30.012Z,20.35
2018-05-29T03:28:30.422Z,20.3
2018-05-29T03:29:30.167Z,20.29
2018-05-29T03:30:30.652Z,20.4
2018-05-29T03:31:30.531Z,20.37
2018-05-29T03:32:30.786Z,20.41
2018-05-29T03:33:31.026Z,20.4
2018-05-29T03:34:31.715Z,20.38
2018-05-29T03:35:32.540Z,20.29
2018-05-29T03:36:31.322Z,20.37
2018-05-29T03:37:31.753Z,20.35
2018-05-29T03:38:31.788Z,20.26
2018-05-29T03:39:31.942Z,20.32
2018-05-29T03:40:32.356Z,20.34
2018-05-29T03:41:32.528Z,20.4
2018-05-29T03:42:32.777Z,20.37
2018-05-29T03:43:32.765Z,20.32
2018-05-29T03:44:33.360Z,20.38
2018-05-29T03:45:33.455Z,20.42
2018-05-29T03:46:33.373Z,20.44
2018-05-29T03:47:33.803Z,20.37
2018-05-29T03:48:33.853Z,20.35
2018-05-29T03:49:33.602Z,20.38
2018-05-29T03:50:34.039Z,20.32
2018-05-29T03:51:34.160Z,20.4
2018-05-29T03:52:34.153Z,20.38
2018-05-29T03:53:34.176Z,20.32
2018-05-29T03:54:34.636Z,20.35
2018-05-29T03:55:34.761Z,20.41
2018-05-29T03:56:35.230Z,20.46
2018-05-29T03:57:35.262Z,20.29
2018-05-29T03:58:35.651Z,20.4
2018-05-29T03:59:36.072Z,20.4
2018-05-29T04:00:36.307Z,20.41
2018-05-29T04:01:37.052Z,20.4
2018-05-29T04:02:36.622Z,20.49
2018-05-29T04:03:37.000Z,20.51
2018-05-29T04:04:37.148Z,20.49
2018-05-29T04:05:37.581Z,20.54
2018-05-29T04:06:37.679Z,20.48
2018-05-29T04:07:37.422Z,20.6
2018-05-29T04:08:37.907Z,20.6
2018-05-29T04:09:37.913Z,20.64
2018-05-29T04:10:37.927Z,20.64
2018-05-29T04:11:38.201Z,20.68
2018-05-29T04:12:37.567Z,20.57
2018-05-29T04:13:38.263Z,20.58
2018-05-29T04:14:38.653Z,20.67
2018-05-29T04:15:38.562Z,20.91
2018-05-29T04:16:38.987Z,21.22
2018-05-29T04:17:39.397Z,21.28
2018-05-29T04:18:39.629Z,21.52
2018-05-29T04:19:40.231Z,21.73
2018-05-29T04:20:41.039Z,22.05
2018-05-29T04:21:41.050Z,22.36
2018-05-29T04:22:40.321Z,22.48
2018-05-29T04:23:40.979Z,22.39
2018-05-29T04:24:40.640Z,22.3
2018-05-29T04:25:40.088Z,22.11
2018-05-29T04:26:40.843Z,21.85
2018-05-29T04:27:40.335Z,21.77
2018-05-29T04:28:40.089Z,21.71
2018-05-29T04:29:40.290Z,21.64
2018-05-29T04:30:39.999Z,21.59
2018-05-29T04:31:39.879Z,21.46
2018-05-29T04:32:40.714Z,21.46
2018-05-29T04:33:41.268Z,21.46
2018-05-29T04:34:41.195Z,21.55
2018-05-29T04:35:41.397Z,21.61
2018-05-29T04:36:41.401Z,21.53
2018-05-29T04:37:42.639Z,21.53
2018-05-29T04:38:42.291Z,21.59
2018-05-29T04:39:42.204Z,21.55
2018-05-29T04:40:42.813Z,21.58
2018-05-29T04:41:42.306Z,21.53
2018-05-29T04:42:43.142Z,21.51
2018-05-29T04:43:42.279Z,21.49
2018-05-29T04:44:42.583Z,21.58
2018-05-29T04:45:42.757Z,21.59
2018-05-29T04:46:42.775Z,21.52
2018-05-29T04:47:42.990Z,21.61
2018-05-29T04:48:43.435Z,21.68
2018-05-29T04:49:43.771Z,21.67
2018-05-29T04:50:43.416Z,21.7
2018-05-29T04:51:43.699Z,21.64
2018-05-29T04:52:44.424Z,21.73
2018-05-29T04:53:44.465Z,21.71
2018-05-29T04:54:44.612Z,21.83
2018-05-29T04:55:44.375Z,21.8
2018-05-29T04:56:45.039Z,21.76
2018-05-29T04:57:45.414Z,21.78
2018-05-29T04:58:44.922Z,21.76
2018-05-29T04:59:45.594Z,21.94
2018-05-29T05:00:46.029Z,21.92
2018-05-29T05:01:46.074Z,21.97
2018-05-29T05:02:46.053Z,21.96
2018-05-29T05:03:46.273Z,22
2018-05-29T05:04:46.516Z,22.14
2018-05-29T05:05:46.826Z,22.12
2018-05-29T05:06:46.821Z,22.12
2018-05-29T05:07:46.811Z,22.26
2018-05-29T05:08:47.148Z,22.27
2018-05-29T05:09:47.363Z,22.23
2018-05-29T05:10:47.617Z,22.39
2018-05-29T05:11:47.380Z,22.46
2018-05-29T05:12:47.687Z,22.51
2018-05-29T05:13:47.472Z,22.64
2018-05-29T05:14:47.280Z,22.79
2018-05-29T05:15:48.450Z,22.94
2018-05-29T05:16:48.289Z,22.92
2018-05-29T05:17:48.090Z,23.01
2018-05-29T05:18:47.838Z,22.91
2018-05-29T05:19:48.199Z,23.01
2018-05-29T05:20:47.887Z,23.03
2018-05-29T05:21:47.673Z,23.09
2018-05-29T05:22:48.442Z,23.15
2018-05-29T05:23:48.639Z,23.35
2018-05-29T05:24:48.571Z,23.42
2018-05-29T05:25:48.554Z,23.6
2018-05-29T05:26:48.377Z,23.67
2018-05-29T05:27:48.955Z,23.81
2018-05-29T05:28:48.889Z,23.79
2018-05-29T05:29:48.277Z,23.97
2018-05-29T05:30:49.181Z,24.26
2018-05-29T05:31:49.157Z,24.51
2018-05-29T05:32:49.263Z,24.59
2018-05-29T05:33:49.210Z,24.77
2018-05-29T05:34:49.038Z,25
2018-05-29T05:35:49.079Z,25.33
2018-05-29T05:36:49.661Z,25.49
2018-05-29T05:37:50.045Z,25.67
2018-05-29T05:38:50.489Z,25.86
2018-05-29T05:39:50.525Z,25.86
2018-05-29T05:40:49.761Z,25.69
2018-05-29T05:41:49.591Z,25.66
2018-05-29T05:42:49.771Z,25.67
2018-05-29T05:43:49.882Z,25.56
2018-05-29T05:44:49.850Z,25.47
2018-05-29T05:45:49.619Z,25.3
2018-05-29T05:46:49.447Z,25.15
2018-05-29T05:47:50.216Z,25.12
2018-05-29T05:48:50.726Z,25.04
2018-05-29T05:49:50.428Z,24.92
2018-05-29T05:50:51.197Z,24.78
2018-05-29T05:51:51.087Z,24.92
2018-05-29T05:52:51.688Z,25.19
2018-05-29T05:53:51.467Z,25.6
2018-05-29T05:54:50.970Z,26
2018-05-29T05:55:51.792Z,26.52
2018-05-29T05:56:51.747Z,26.5
2018-05-29T05:57:51.781Z,26.72
2018-05-29T05:58:51.751Z,26.64
2018-05-29T05:59:52.175Z,26.5
2018-05-29T06:00:51.807Z,26.38
2018-05-29T06:01:52.189Z,26.26
2018-05-29T06:02:52.620Z,26.12
2018-05-29T06:03:52.885Z,26.01
2018-05-29T06:04:52.729Z,26.07
2018-05-29T06:05:52.424Z,25.93
2018-05-29T06:06:52.775Z,25.94
2018-05-29T06:07:53.146Z,25.84
2018-05-29T06:08:52.781Z,25.94
2018-05-29T06:09:53.085Z,25.89
2018-05-29T06:10:53.154Z,26.15
2018-05-29T06:11:53.495Z,26.59
2018-05-29T06:12:53.427Z,27.05
2018-05-29T06:13:53.321Z,27.45
2018-05-29T06:14:53.624Z,27.57
2018-05-29T06:15:53.897Z,27.93
2018-05-29T06:16:53.936Z,28.48
2018-05-29T06:17:53.960Z,29.54
2018-05-29T06:18:54.163Z,30.44
2018-05-29T06:19:55.049Z,31.23
2018-05-29T06:20:55.001Z,32
2018-05-29T06:21:55.028Z,32.37
2018-05-29T06:22:55.446Z,33.01
2018-05-29T06:23:55.317Z,33.11
2018-05-29T06:24:55.585Z,32.99
2018-05-29T06:25:56.046Z,32.87
2018-05-29T06:26:55.800Z,33.08
2018-05-29T06:27:55.112Z,33.09
2018-05-29T06:28:55.930Z,33.21
2018-05-29T06:29:55.980Z,33.62
2018-05-29T06:30:55.709Z,34.02
2018-05-29T06:31:56.151Z,34.3
2018-05-29T06:32:55.759Z,34.51
2018-05-29T06:33:56.061Z,34.79
2018-05-29T06:34:56.120Z,35.18
2018-05-29T06:35:56.277Z,35.06
2018-05-29T06:36:56.250Z,34.58
2018-05-29T06:37:56.175Z,34.61
2018-05-29T06:38:56.355Z,34.54
2018-05-29T06:39:56.840Z,34.18
2018-05-29T06:40:56.959Z,34.1
2018-05-29T06:41:56.594Z,34.14
2018-05-29T06:42:56.906Z,34.36
2018-05-29T06:43:57.284Z,34.9
2018-05-29T06:44:57.957Z,34.93
2018-05-29T06:45:58.130Z,35.33
2018-05-29T06:46:57.574Z,35.46
2018-05-29T06:47:58.338Z,35.33
2018-05-29T06:48:58.957Z,34.87
2018-05-29T06:49:58.020Z,34.46
2018-05-29T06:50:58.814Z,34.27
2018-05-29T06:51:58.918Z,33.81
2018-05-29T06:52:58.644Z,33.87
2018-05-29T06:53:59.090Z,34.22
2018-05-29T06:54:58.938Z,34.46
2018-05-29T06:55:59.152Z,34.94
2018-05-29T06:56:59.355Z,34.71
2018-05-29T06:57:59.095Z,34.64
2018-05-29T06:58:59.174Z,34.67
2018-05-29T06:59:59.072Z,34.45
2018-05-29T07:01:00.116Z,34.4
2018-05-29T07:02:00.089Z,34.3
2018-05-29T07:03:00.266Z,34.51
2018-05-29T07:04:00.461Z,34.91
2018-05-29T07:05:00.381Z,35.47
2018-05-29T07:05:59.908Z,35.92
2018-05-29T07:07:00.277Z,36.18
2018-05-29T07:08:00.586Z,36.78
2018-05-29T07:09:00.086Z,37.22
2018-05-29T07:10:01.123Z,36.59
2018-05-29T07:11:01.099Z,36.14
2018-05-29T07:12:01.298Z,35.64
2018-05-29T07:13:01.374Z,35.52
2018-05-29T07:14:01.358Z,35.71
2018-05-29T07:15:01.424Z,35.96
2018-05-29T07:16:01.336Z,35.65
2018-05-29T07:17:01.924Z,35.92
2018-05-29T07:18:01.730Z,35.86
2018-05-29T07:19:01.976Z,36.08
2018-05-29T07:20:02.169Z,36.55
2018-05-29T07:21:02.973Z,36.74
2018-05-29T07:22:02.738Z,37.41
2018-05-29T07:23:02.511Z,38.08
2018-05-29T07:24:02.923Z,37.76
2018-05-29T07:25:02.978Z,37.79
2018-05-29T07:26:02.997Z,37.88
2018-05-29T07:27:02.695Z,37.51
2018-05-29T07:28:03.236Z,37.94
2018-05-29T07:29:03.415Z,38.58
2018-05-29T07:30:03.823Z,38.62
2018-05-29T07:31:04.082Z,38.81
2018-05-29T07:32:04.430Z,38.93
2018-05-29T07:33:04.703Z,39.38
2018-05-29T07:34:04.910Z,39.11
2018-05-29T07:35:04.863Z,39.09
2018-05-29T07:36:05.380Z,38.97
2018-05-29T07:37:05.413Z,38.71
2018-05-29T07:38:05.647Z,38.31
2018-05-29T07:39:06.494Z,38.13
2018-05-29T07:40:05.952Z,38.43
2018-05-29T07:41:06.020Z,38.71
2018-05-29T07:42:05.899Z,39.15
2018-05-29T07:43:06.266Z,39.59
2018-05-29T07:44:08.347Z,39.9
2018-05-29T07:45:08.698Z,39.64
2018-05-29T07:46:07.900Z,40.06
2018-05-29T07:47:07.382Z,40.36
2018-05-29T07:48:07.423Z,40.54
2018-05-29T07:49:07.126Z,41.01
2018-05-29T07:50:08.592Z,41.13
2018-05-29T07:51:07.958Z,40.41
2018-05-29T07:52:08.204Z,39.88
2018-05-29T07:53:07.879Z,39.79
2018-05-29T07:54:07.985Z,39.83
2018-05-29T07:55:08.047Z,39.56
2018-05-29T07:56:08.838Z,38.93
2018-05-29T07:57:08.544Z,38.66
2018-05-29T07:58:08.732Z,38.78
2018-05-29T07:59:08.741Z,39.41
2018-05-29T08:00:15.623Z,40.34
2018-05-29T08:01:09.067Z,40.5
2018-05-29T08:02:09.229Z,40.82
2018-05-29T08:03:09.320Z,41.01
2018-05-29T08:04:09.610Z,40.28
2018-05-29T08:05:09.436Z,39.42
2018-05-29T08:06:09.424Z,38.83
2018-05-29T08:07:09.573Z,38.2
2018-05-29T08:08:09.260Z,38.02
2018-05-29T08:09:10.088Z,37.86
2018-05-29T08:10:10.450Z,38.22
2018-05-29T08:11:10.382Z,38.49
2018-05-29T08:12:10.099Z,38.66
2018-05-29T08:13:10.393Z,38.93
2018-05-29T08:14:10.386Z,38.9
2018-05-29T08:15:10.584Z,38.68
2018-05-29T08:16:10.047Z,38.37
2018-05-29T08:17:10.826Z,38.71
2018-05-29T08:18:10.267Z,38.58
2018-05-29T08:19:10.806Z,38.66
2018-05-29T08:20:11.188Z,38.55
2018-05-29T08:21:10.862Z,39.23
2018-05-29T08:22:10.929Z,40.3
2018-05-29T08:23:10.783Z,40.81
2018-05-29T08:24:11.192Z,40.74
2018-05-29T08:25:10.823Z,40.25
2018-05-29T08:26:11.822Z,40.4
2018-05-29T08:27:12.036Z,40.05
2018-05-29T08:28:11.743Z,40.01
2018-05-29T08:29:11.504Z,40.27
2018-05-29T08:30:11.369Z,40.41
2018-05-29T08:31:12.063Z,40.62
2018-05-29T08:32:12.746Z,40.41
2018-05-29T08:33:11.806Z,40.09
2018-05-29T08:34:12.424Z,40.21
2018-05-29T08:35:12.010Z,40.24
2018-05-29T08:36:12.603Z,40.3
2018-05-29T08:37:12.691Z,40.13
2018-05-29T08:38:13.116Z,39.96
2018-05-29T08:39:14.134Z,40.01
2018-05-29T08:40:13.490Z,39.64
2018-05-29T08:41:13.574Z,39.27
2018-05-29T08:42:13.755Z,39.65
2018-05-29T08:43:14.363Z,40.31
2018-05-29T08:44:13.704Z,40.32
2018-05-29T08:45:13.912Z,40.63
2018-05-29T08:46:13.978Z,40.93
2018-05-29T08:47:13.677Z,41.49
2018-05-29T08:48:14.360Z,41.76
2018-05-29T08:49:14.694Z,41.68
2018-05-29T08:50:14.837Z,41.31
2018-05-29T08:51:14.840Z,41.31
2018-05-29T08:52:15.781Z,40.98
2018-05-29T08:53:15.295Z,40.69
2018-05-29T08:54:15.141Z,40.34
2018-05-29T08:55:15.125Z,40.43
2018-05-29T08:56:15.770Z,40.44
2018-05-29T08:57:15.439Z,40.05
2018-05-29T08:58:15.194Z,40.16
2018-05-29T08:59:15.015Z,39.74
2018-05-29T09:00:15.301Z,39.72
2018-05-29T09:01:15.272Z,39.49
2018-05-29T09:02:15.286Z,39.94
2018-05-29T09:03:15.914Z,40.03
2018-05-29T09:04:15.843Z,40.01
2018-05-29T09:05:15.579Z,40.74
2018-05-29T09:06:15.236Z,41.3
2018-05-29T09:07:15.517Z,41.8
2018-05-29T09:08:15.354Z,41.73
2018-05-29T09:09:15.913Z,42.07
2018-05-29T09:10:15.929Z,42.25
2018-05-29T09:11:15.708Z,42.6
2018-05-29T09:12:15.786Z,42.94
2018-05-29T09:13:16.192Z,43.42
2018-05-29T09:14:16.109Z,43.58
2018-05-29T09:15:15.616Z,43.85
2018-05-29T09:16:16.448Z,43.9
2018-05-29T09:17:16.342Z,43.77
2018-05-29T09:18:16.781Z,43.27
2018-05-29T09:19:16.903Z,43.42
2018-05-29T09:20:17.310Z,43.32
2018-05-29T09:21:17.459Z,43.13
2018-05-29T09:22:17.522Z,42.61
2018-05-29T09:23:17.366Z,42.4
2018-05-29T09:24:17.972Z,42.15
2018-05-29T09:25:18.143Z,42.13
2018-05-29T09:26:18.529Z,42.07
2018-05-29T09:27:18.548Z,41.78
2018-05-29T09:28:19.053Z,41.01
2018-05-29T09:29:18.843Z,40.5
2018-05-29T09:30:18.980Z,40.59
2018-05-29T09:31:19.775Z,40.47
2018-05-29T09:32:19.650Z,40.62
2018-05-29T09:33:19.941Z,41
2018-05-29T09:34:19.805Z,41.5
2018-05-29T09:35:19.639Z,41.38
2018-05-29T09:36:20.161Z,41.01
2018-05-29T09:37:20.499Z,41.22
2018-05-29T09:38:20.229Z,40.86
2018-05-29T09:39:20.420Z,40.15
2018-05-29T09:40:20.909Z,40.08
2018-05-29T09:41:21.051Z,40.34
2018-05-29T09:42:20.808Z,40.85
2018-05-29T09:43:20.562Z,40.77
2018-05-29T09:44:21.228Z,40.7
2018-05-29T09:45:21.749Z,41.28
2018-05-29T09:46:21.361Z,41.68
2018-05-29T09:47:21.829Z,42.04
2018-05-29T09:48:21.954Z,42.69
2018-05-29T09:49:22.450Z,42.63
2018-05-29T09:50:22.106Z,42.18
2018-05-29T09:51:21.881Z,42.17
2018-05-29T09:52:22.525Z,41.73
2018-05-29T09:53:22.771Z,41.8
2018-05-29T09:54:22.899Z,41.68
2018-05-29T09:55:22.364Z,41.88
2018-05-29T09:56:22.745Z,41.18
2018-05-29T09:57:22.893Z,40.86
2018-05-29T09:58:23.188Z,40.94
2018-05-29T09:59:23.507Z,40.6
2018-05-29T10:00:23.955Z,40.79
2018-05-29T10:01:23.370Z,40.67
2018-05-29T10:02:23.938Z,40.7
2018-05-29T10:03:23.830Z,40.77
2018-05-29T10:04:23.630Z,40.3
2018-05-29T10:05:23.689Z,40.18
2018-05-29T10:06:23.707Z,40.66
2018-05-29T10:07:24.229Z,40.88
2018-05-29T10:08:24.610Z,41.11
2018-05-29T10:09:24.944Z,40.98
2018-05-29T10:10:24.845Z,40.94
2018-05-29T10:11:25.138Z,40.97
2018-05-29T10:12:24.812Z,40.77
2018-05-29T10:13:25.259Z,40.98
2018-05-29T10:14:25.230Z,40.94
2018-05-29T10:15:25.373Z,40.74
2018-05-29T10:16:26.063Z,41.28
2018-05-29T10:17:25.818Z,41.71
2018-05-29T10:18:26.507Z,41.69
2018-05-29T10:19:26.612Z,41.5
2018-05-29T10:20:26.177Z,41.47
2018-05-29T10:21:26.462Z,41.5
2018-05-29T10:22:26.889Z,41.08
2018-05-29T10:23:27.106Z,41.31
2018-05-29T10:24:27.537Z,41.06
2018-05-29T10:25:27.536Z,41.19
2018-05-29T10:26:27.569Z,41.35
2018-05-29T10:27:27.732Z,41.54
2018-05-29T10:28:27.663Z,42.25
2018-05-29T10:29:27.437Z,42.95
2018-05-29T10:30:27.737Z,43.66
2018-05-29T10:31:27.645Z,43.93
2018-05-29T10:32:27.849Z,43.96
2018-05-29T10:33:28.188Z,43.54
2018-05-29T10:34:27.949Z,43.32
2018-05-29T10:35:27.968Z,43.15
2018-05-29T10:36:28.567Z,42.23
2018-05-29T10:37:28.345Z,41.8
2018-05-29T10:38:28.599Z,41.45
2018-05-29T10:39:28.899Z,41.18
2018-05-29T10:40:28.996Z,41.28
2018-05-29T10:41:29.294Z,41.91
2018-05-29T10:42:29.970Z,42.35
2018-05-29T10:43:30.700Z,42.6
2018-05-29T10:44:30.034Z,42.29
2018-05-29T10:45:30.197Z,42.61
2018-05-29T10:46:30.095Z,42.89
2018-05-29T10:47:30.442Z,42.89
2018-05-29T10:48:30.979Z,42.29
2018-05-29T10:49:30.488Z,42.66
2018-05-29T10:50:30.341Z,43.17
2018-05-29T10:51:30.530Z,43.78
2018-05-29T10:52:30.509Z,43.83
2018-05-29T10:53:30.405Z,43.19
2018-05-29T10:54:30.511Z,43.15
2018-05-29T10:55:30.188Z,43.08
2018-05-29T10:56:30.446Z,43.07
2018-05-29T10:57:30.872Z,43.2
2018-05-29T10:58:30.925Z,42.88
2018-05-29T10:59:31.483Z,42.67
2018-05-29T11:00:30.902Z,42.14
2018-05-29T11:01:30.704Z,41.89
2018-05-29T11:02:31.256Z,41.78
2018-05-29T11:03:31.065Z,41.6
2018-05-29T11:04:31.633Z,41.69
2018-05-29T11:05:31.348Z,41.87
2018-05-29T11:06:31.786Z,41.49
2018-05-29T11:07:31.654Z,41.69
2018-05-29T11:08:31.664Z,41.47
2018-05-29T11:09:32.194Z,41.66
2018-05-29T11:10:32.612Z,41.88
2018-05-29T11:11:32.403Z,42.49
2018-05-29T11:12:32.293Z,42.33
2018-05-29T11:13:33.738Z,42.22
2018-05-29T11:14:33.187Z,41.66
2018-05-29T11:15:33.204Z,40.72
2018-05-29T11:16:33.516Z,40.31
2018-05-29T11:17:33.606Z,40.51
2018-05-29T11:18:34.042Z,40.03
2018-05-29T11:19:34.899Z,40.2
2018-05-29T11:20:33.477Z,40.28
2018-05-29T11:21:34.081Z,40.21
2018-05-29T11:22:34.601Z,40.25
2018-05-29T11:23:35.033Z,39.84
2018-05-29T11:24:35.037Z,39.79
2018-05-29T11:25:34.216Z,40.43
2018-05-29T11:26:34.169Z,40.7
2018-05-29T11:27:34.489Z,40.82
2018-05-29T11:28:34.292Z,40.15
2018-05-29T11:29:34.531Z,39.25
2018-05-29T11:30:34.786Z,37.94
2018-05-29T11:31:35.610Z,36.74
2018-05-29T11:32:35.121Z,35.69
2018-05-29T11:33:35.433Z,35.05
2018-05-29T11:34:35.384Z,34.33
2018-05-29T11:35:35.665Z,33.97
2018-05-29T11:36:35.834Z,33.68
2018-05-29T11:37:37.017Z,33.5
2018-05-29T11:38:37.090Z,33.32
2018-05-29T11:39:37.173Z,33.12
2018-05-29T11:40:36.915Z,32.87
2018-05-29T11:41:37.324Z,32.72
2018-05-29T11:42:38.257Z,32.53
2018-05-29T11:43:38.187Z,32.35
2018-05-29T11:44:38.222Z,32.2
2018-05-29T11:45:37.556Z,32.15
2018-05-29T11:46:37.315Z,32.09
2018-05-29T11:47:37.372Z,31.9
2018-05-29T11:48:37.854Z,31.78
2018-05-29T11:49:37.404Z,31.7
2018-05-29T11:50:37.502Z,31.53
2018-05-29T11:51:37.860Z,31.62
2018-05-29T11:52:37.572Z,31.65
2018-05-29T11:53:37.566Z,31.62
2018-05-29T11:54:37.981Z,31.62
2018-05-29T11:55:38.904Z,31.58
2018-05-29T11:56:38.268Z,31.5
2018-05-29T11:57:38.632Z,31.49
2018-05-29T11:58:39.005Z,31.33
2018-05-29T11:59:39.026Z,31.45
2018-05-29T12:00:40.018Z,31.56
2018-05-29T12:01:39.826Z,31.55
2018-05-29T12:02:39.905Z,31.6
2018-05-29T12:03:40.113Z,31.6
2018-05-29T12:04:40.219Z,31.7
2018-05-29T12:05:40.059Z,31.63
2018-05-29T12:06:40.293Z,31.59
2018-05-29T12:07:40.205Z,31.58
2018-05-29T12:08:40.025Z,31.59
2018-05-29T12:09:40.531Z,31.52
2018-05-29T12:10:40.495Z,31.43
2018-05-29T12:11:41.173Z,31.45
2018-05-29T12:12:40.992Z,31.44
2018-05-29T12:13:40.787Z,31.37
2018-05-29T12:14:42.052Z,31.43
2018-05-29T12:15:41.517Z,31.37
2018-05-29T12:16:41.731Z,31.36
2018-05-29T12:17:42.108Z,31.36
2018-05-29T12:18:42.133Z,31.43
2018-05-29T12:19:42.416Z,31.44
2018-05-29T12:20:42.606Z,31.44
2018-05-29T12:21:43.585Z,31.37
2018-05-29T12:22:43.483Z,31.44
2018-05-29T12:23:43.217Z,31.47
2018-05-29T12:24:42.862Z,31.47
2018-05-29T12:25:43.055Z,31.49
2018-05-29T12:26:43.412Z,31.56
2018-05-29T12:27:43.541Z,31.55
2018-05-29T12:28:44.235Z,31.55
2018-05-29T12:29:43.557Z,31.53
2018-05-29T12:30:43.863Z,31.5
2018-05-29T12:31:43.890Z,31.67
2018-05-29T12:32:44.214Z,31.59
2018-05-29T12:33:43.684Z,31.55
2018-05-29T12:34:43.950Z,31.65
2018-05-29T12:35:44.660Z,31.6
2018-05-29T12:36:44.872Z,31.62
2018-05-29T12:37:45.295Z,31.58
2018-05-29T12:38:45.326Z,31.53
2018-05-29T12:39:45.159Z,31.55
2018-05-29T12:40:55.264Z,31.45
2018-05-29T12:41:45.582Z,31.49
2018-05-29T12:42:46.295Z,31.49
2018-05-29T12:43:46.566Z,31.33
2018-05-29T12:44:47.007Z,31.33
2018-05-29T12:45:47.196Z,31.37
2018-05-29T12:46:47.718Z,31.31
2018-05-29T12:47:47.544Z,31.34
2018-05-29T12:48:47.515Z,31.38
2018-05-29T12:49:47.568Z,31.34
2018-05-29T12:50:47.356Z,31.44
2018-05-29T12:51:47.626Z,31.38
2018-05-29T12:52:48.059Z,31.38
2018-05-29T12:53:48.242Z,31.45
2018-05-29T12:54:48.707Z,31.45
2018-05-29T12:55:48.705Z,31.45
2018-05-29T12:56:48.756Z,31.45
2018-05-29T12:57:49.058Z,31.44